Time;durP1;ratioP1;P1;durP2;ratioP2;P2;SDS_P1;SDS_P2;PMS_P1;PMS_P2;Temp;Humidity;BMP_temperature;BMP_pressure;BME280_temperature;BME280_humidity;BME280_pressure;Samples;Min_cycle;Max_cycle;Signal;HPM_P1;HPM_P2
2021/10/30 00:01:23;;;;;;;7.80;6.90;;;;;;;;;;4997763;28;20535;-80
2021/10/30 00:03:50;;;;;;;7.28;6.47;;;;;;;;;;4998350;28;20442;-80
2021/10/30 00:06:16;;;;;;;7.50;6.72;;;;;;;;;;4992800;28;20206;-80
2021/10/30 00:08:42;;;;;;;8.90;6.30;;;;;;;;;;4999583;28;20685;-80
2021/10/30 00:11:08;;;;;;;10.03;6.80;;;;;;;;;;5000479;28;20187;-80
2021/10/30 00:13:34;;;;;;;8.27;7.45;;;;;;;;;;4993280;28;20449;-80
2021/10/30 00:16:00;;;;;;;10.30;6.75;;;;;;;;;;4991896;28;20248;-80
2021/10/30 00:18:27;;;;;;;7.22;6.53;;;;;;;;;;4993830;28;20222;-80
2021/10/30 00:20:53;;;;;;;7.07;5.97;;;;;;;;;;4989197;28;20635;-80
2021/10/30 00:23:19;;;;;;;8.30;6.55;;;;;;;;;;5003655;28;20175;-80
2021/10/30 00:25:45;;;;;;;8.73;6.80;;;;;;;;;;4998733;28;20202;-80
2021/10/30 00:28:11;;;;;;;7.45;6.72;;;;;;;;;;4994647;28;20187;-81
2021/10/30 00:30:37;;;;;;;7.20;6.50;;;;;;;;;;5009764;28;20328;-81
2021/10/30 00:33:03;;;;;;;9.60;6.88;;;;;;;;;;5004416;28;20195;-80
2021/10/30 00:35:29;;;;;;;6.97;6.28;;;;;;;;;;4998277;28;20186;-81
2021/10/30 00:37:55;;;;;;;8.60;6.70;;;;;;;;;;5000070;28;20180;-81
2021/10/30 00:40:21;;;;;;;6.80;6.10;;;;;;;;;;4997829;28;20561;-80
2021/10/30 00:42:47;;;;;;;6.90;6.10;;;;;;;;;;4999395;28;20192;-81
2021/10/30 00:45:13;;;;;;;6.40;5.38;;;;;;;;;;4991224;28;20557;-81
2021/10/30 00:47:39;;;;;;;7.60;5.90;;;;;;;;;;4996617;28;20218;-81
2021/10/30 00:50:06;;;;;;;7.68;6.75;;;;;;;;;;4998425;28;20441;-81
2021/10/30 00:52:34;;;;;;;8.02;6.18;;;;;;;;;;4997267;28;20207;-81
2021/10/30 00:55:00;;;;;;;7.97;6.10;;;;;;;;;;4996794;28;20184;-80
2021/10/30 00:57:26;;;;;;;6.15;5.55;;;;;;;;;;5002398;28;20226;-80
2021/10/30 00:59:54;;;;;;;10.27;6.25;;;;;;;;;;4993502;28;20192;-80
2021/10/30 01:02:20;;;;;;;6.75;6.05;;;;;;;;;;5002175;28;20175;-80
2021/10/30 01:04:47;;;;;;;6.50;5.63;;;;;;;;;;4991538;28;20227;-80
2021/10/30 01:07:13;;;;;;;7.72;5.95;;;;;;;;;;5007229;28;20198;-81
2021/10/30 01:09:39;;;;;;;8.55;5.90;;;;;;;;;;4998208;28;20185;-79
2021/10/30 01:12:06;;;;;;;6.63;6.03;;;;;;;;;;4989215;28;20218;-79
2021/10/30 01:14:32;;;;;;;6.97;6.28;;;;;;;;;;4998151;28;20175;-79
2021/10/30 01:16:59;;;;;;;6.88;6.18;;;;;;;;;;5001382;28;20219;-79
2021/10/30 01:19:26;;;;;;;7.53;5.90;;;;;;;;;;4996248;28;20184;-80
2021/10/30 01:21:52;;;;;;;6.20;5.60;;;;;;;;;;4997048;28;20175;-79
2021/10/30 01:24:18;;;;;;;5.47;4.97;;;;;;;;;;5002325;28;20261;-79
2021/10/30 01:26:44;;;;;;;5.13;4.63;;;;;;;;;;4996888;28;20187;-79
2021/10/30 01:29:10;;;;;;;5.82;4.97;;;;;;;;;;4997096;28;20438;-79
2021/10/30 01:31:36;;;;;;;6.13;5.15;;;;;;;;;;4992139;28;20179;-79
2021/10/30 01:34:06;;;;;;;6.82;5.00;;;;;;;;;;4997420;28;20474;-79
2021/10/30 01:36:33;;;;;;;6.53;5.50;;;;;;;;;;4996809;28;20189;-79
2021/10/30 01:38:59;;;;;;;6.60;5.32;;;;;;;;;;4985841;28;20191;-79
2021/10/30 01:41:26;;;;;;;6.75;4.90;;;;;;;;;;4992680;28;20271;-80
2021/10/30 01:43:52;;;;;;;5.10;4.63;;;;;;;;;;4998071;28;20203;-80
2021/10/30 01:46:18;;;;;;;5.30;4.90;;;;;;;;;;4991875;28;20219;-80
2021/10/30 01:48:45;;;;;;;6.10;4.70;;;;;;;;;;4990544;28;20199;-79
2021/10/30 01:51:11;;;;;;;8.60;5.53;;;;;;;;;;5002345;28;20195;-80
2021/10/30 01:53:37;;;;;;;6.78;5.50;;;;;;;;;;4986451;28;20215;-80
2021/10/30 01:56:03;;;;;;;6.65;4.70;;;;;;;;;;4988211;28;20192;-80
2021/10/30 01:58:29;;;;;;;6.10;5.18;;;;;;;;;;4999630;28;20434;-80
2021/10/30 02:00:56;;;;;;;5.43;4.70;;;;;;;;;;5007915;28;20481;-80
2021/10/30 02:03:23;;;;;;;6.40;5.20;;;;;;;;;;5002256;28;20435;-80
2021/10/30 02:05:50;;;;;;;6.00;4.68;;;;;;;;;;4997769;28;20225;-80
2021/10/30 02:08:16;;;;;;;5.90;4.78;;;;;;;;;;4997038;28;20182;-80
2021/10/30 02:10:42;;;;;;;6.50;4.70;;;;;;;;;;4997430;28;20178;-80
2021/10/30 02:13:08;;;;;;;7.23;4.77;;;;;;;;;;4997420;28;20849;-79
2021/10/30 02:15:34;;;;;;;5.68;4.50;;;;;;;;;;5003459;28;20454;-79
2021/10/30 02:18:00;;;;;;;9.40;4.70;;;;;;;;;;4992158;28;20229;-79
2021/10/30 02:20:26;;;;;;;10.00;4.75;;;;;;;;;;5000266;28;20427;-79
2021/10/30 02:22:53;;;;;;;5.20;4.50;;;;;;;;;;5000960;28;20183;-79
2021/10/30 02:25:22;;;;;;;4.95;4.50;;;;;;;;;;4998085;28;20196;-79
2021/10/30 02:27:48;;;;;;;7.57;4.85;;;;;;;;;;4998600;28;20183;-80
2021/10/30 02:30:14;;;;;;;7.07;4.60;;;;;;;;;;5004851;28;20212;-79
2021/10/30 02:32:41;;;;;;;4.95;4.22;;;;;;;;;;4990655;28;20187;-80
2021/10/30 02:35:07;;;;;;;5.05;4.40;;;;;;;;;;5001135;28;20179;-80
2021/10/30 02:37:33;;;;;;;6.07;4.10;;;;;;;;;;4999024;28;20190;-80
2021/10/30 02:39:59;;;;;;;8.75;4.28;;;;;;;;;;4998866;28;20187;-80
2021/10/30 02:42:26;;;;;;;6.28;4.28;;;;;;;;;;4994289;28;20218;-80
2021/10/30 02:44:52;;;;;;;4.00;3.60;;;;;;;;;;4995430;28;20660;-83
2021/10/30 02:47:18;;;;;;;6.53;4.10;;;;;;;;;;4999413;28;20266;-80
2021/10/30 02:49:44;;;;;;;4.47;3.80;;;;;;;;;;4994642;28;20235;-79
2021/10/30 02:52:10;;;;;;;4.40;3.92;;;;;;;;;;5000512;28;20210;-79
2021/10/30 02:54:36;;;;;;;3.80;3.47;;;;;;;;;;5003355;28;20187;-79
2021/10/30 02:57:02;;;;;;;4.93;3.80;;;;;;;;;;5003352;28;20430;-80
2021/10/30 02:59:28;;;;;;;4.72;4.20;;;;;;;;;;4999423;28;20224;-80
2021/10/30 03:01:54;;;;;;;5.70;4.13;;;;;;;;;;5001613;28;20168;-79
2021/10/30 03:04:20;;;;;;;5.77;4.90;;;;;;;;;;5000660;28;20468;-80
2021/10/30 03:06:46;;;;;;;5.00;3.90;;;;;;;;;;4999713;28;20444;-80
2021/10/30 03:09:12;;;;;;;4.95;4.00;;;;;;;;;;5004890;28;20183;-80
2021/10/30 03:11:39;;;;;;;4.43;3.70;;;;;;;;;;4998901;28;20234;-81
2021/10/30 03:14:05;;;;;;;5.47;5.00;;;;;;;;;;5000199;28;20537;-80
2021/10/30 03:16:31;;;;;;;4.25;3.85;;;;;;;;;;4998701;28;20675;-80
2021/10/30 03:18:57;;;;;;;5.65;4.10;;;;;;;;;;4998192;28;20188;-79
2021/10/30 03:21:23;;;;;;;5.82;4.15;;;;;;;;;;5002608;28;20194;-79
2021/10/30 03:23:50;;;;;;;4.03;3.70;;;;;;;;;;5001830;28;20188;-79
2021/10/30 03:26:16;;;;;;;10.23;4.13;;;;;;;;;;4997709;28;20206;-80
2021/10/30 03:28:42;;;;;;;7.22;4.70;;;;;;;;;;4998836;28;20175;-80
2021/10/30 03:31:08;;;;;;;6.80;4.53;;;;;;;;;;5000441;28;20191;-80
2021/10/30 03:33:34;;;;;;;9.70;4.90;;;;;;;;;;5004163;28;21062;-80
2021/10/30 03:36:00;;;;;;;4.90;4.50;;;;;;;;;;5005518;28;20517;-79
2021/10/30 03:38:26;;;;;;;6.70;4.32;;;;;;;;;;4998441;28;20640;-79
2021/10/30 03:40:52;;;;;;;4.15;3.78;;;;;;;;;;4998930;28;20189;-79
2021/10/30 03:43:18;;;;;;;7.05;4.07;;;;;;;;;;4998271;28;20277;-79
2021/10/30 03:45:44;;;;;;;5.38;4.50;;;;;;;;;;5001073;28;20272;-79
2021/10/30 03:48:10;;;;;;;5.38;4.88;;;;;;;;;;4991636;28;20181;-80
2021/10/30 03:50:38;;;;;;;5.30;4.80;;;;;;;;;;4997521;28;20888;-80
2021/10/30 03:53:07;;;;;;;5.15;4.65;;;;;;;;;;4999409;28;20190;-79
2021/10/30 03:55:33;;;;;;;8.85;5.10;;;;;;;;;;4997662;28;20191;-80
2021/10/30 03:57:59;;;;;;;4.75;4.32;;;;;;;;;;4998263;28;20631;-80
2021/10/30 04:00:25;;;;;;;5.90;4.35;;;;;;;;;;5002922;28;20274;-79
2021/10/30 04:02:51;;;;;;;5.93;5.45;;;;;;;;;;5000806;28;20205;-79
2021/10/30 04:05:18;;;;;;;5.13;4.63;;;;;;;;;;4997932;28;20577;-79
2021/10/30 04:07:44;;;;;;;5.80;5.30;;;;;;;;;;4999828;28;20171;-80
2021/10/30 04:10:10;;;;;;;6.73;5.40;;;;;;;;;;5002795;28;20198;-80
2021/10/30 04:12:36;;;;;;;5.07;4.68;;;;;;;;;;4993295;28;20496;-80
2021/10/30 04:15:02;;;;;;;5.83;5.03;;;;;;;;;;5000358;28;20194;-80
2021/10/30 04:17:28;;;;;;;5.28;4.07;;;;;;;;;;4997794;28;20474;-80
2021/10/30 04:19:54;;;;;;;5.72;5.10;;;;;;;;;;4998323;28;20202;-80
2021/10/30 04:22:20;;;;;;;6.22;4.18;;;;;;;;;;4997537;28;20190;-80
2021/10/30 04:24:46;;;;;;;6.30;4.73;;;;;;;;;;5000602;28;20204;-80
2021/10/30 04:27:12;;;;;;;6.20;4.90;;;;;;;;;;5001520;28;20438;-80
2021/10/30 04:29:38;;;;;;;4.80;4.30;;;;;;;;;;4997198;28;20446;-80
2021/10/30 04:32:06;;;;;;;5.68;4.78;;;;;;;;;;5005335;28;20175;-80
2021/10/30 04:37:15;;;;;;;5.07;4.57;;;;;;;;;;4995714;28;20179;-80
2021/10/30 04:39:41;;;;;;;6.80;5.20;;;;;;;;;;5010158;28;20190;-80
2021/10/30 04:42:07;;;;;;;6.65;4.75;;;;;;;;;;5002057;28;20187;-79
2021/10/30 04:44:33;;;;;;;5.38;4.80;;;;;;;;;;4988037;28;20255;-80
2021/10/30 04:46:59;;;;;;;5.63;5.05;;;;;;;;;;4999358;28;20179;-80
2021/10/30 04:49:25;;;;;;;4.95;4.43;;;;;;;;;;4997836;28;20179;-79
2021/10/30 04:51:51;;;;;;;5.00;4.50;;;;;;;;;;4997726;28;20211;-80
2021/10/30 04:54:17;;;;;;;5.70;4.88;;;;;;;;;;4992405;28;20426;-80
2021/10/30 04:56:43;;;;;;;5.47;4.40;;;;;;;;;;4998751;28;20193;-80
2021/10/30 04:59:09;;;;;;;5.10;4.60;;;;;;;;;;4998213;28;20462;-80
2021/10/30 05:01:35;;;;;;;6.93;3.80;;;;;;;;;;4998422;28;20442;-79
2021/10/30 05:04:01;;;;;;;4.27;3.90;;;;;;;;;;5003213;28;20534;-79
2021/10/30 05:06:27;;;;;;;4.60;4.20;;;;;;;;;;5000555;28;20466;-79
2021/10/30 05:08:53;;;;;;;5.60;4.53;;;;;;;;;;5000915;28;20453;-80
2021/10/30 05:11:19;;;;;;;4.50;4.10;;;;;;;;;;4997152;28;20180;-80
2021/10/30 05:13:45;;;;;;;8.20;3.63;;;;;;;;;;4992517;28;20482;-80
2021/10/30 05:16:11;;;;;;;4.27;3.80;;;;;;;;;;4991703;28;20436;-79
2021/10/30 05:18:37;;;;;;;7.32;4.15;;;;;;;;;;4993274;28;20471;-79
2021/10/30 05:21:03;;;;;;;5.47;4.10;;;;;;;;;;5003288;28;20214;-80
2021/10/30 05:23:29;;;;;;;3.88;3.53;;;;;;;;;;4998257;28;20431;-80
2021/10/30 05:25:55;;;;;;;4.20;3.80;;;;;;;;;;4997848;28;20199;-79
2021/10/30 05:28:21;;;;;;;5.77;3.27;;;;;;;;;;5003249;28;20446;-79
2021/10/30 05:30:50;;;;;;;4.57;3.47;;;;;;;;;;5002809;28;20466;-79
2021/10/30 05:33:16;;;;;;;6.10;3.20;;;;;;;;;;5001929;28;20644;-79
2021/10/30 05:35:42;;;;;;;3.42;3.13;;;;;;;;;;4987996;28;20243;-81
2021/10/30 05:38:10;;;;;;;4.50;4.10;;;;;;;;;;4998040;28;20333;-80
2021/10/30 05:40:36;;;;;;;4.88;3.50;;;;;;;;;;4999529;28;20192;-79
2021/10/30 05:43:02;;;;;;;3.80;3.37;;;;;;;;;;4994035;28;20187;-80
2021/10/30 05:45:28;;;;;;;3.90;3.27;;;;;;;;;;5000347;28;20477;-80
2021/10/30 05:47:54;;;;;;;3.50;3.20;;;;;;;;;;5001722;28;20443;-79
2021/10/30 05:50:20;;;;;;;3.58;3.28;;;;;;;;;;5001038;28;20182;-79
2021/10/30 05:52:46;;;;;;;3.70;3.40;;;;;;;;;;5001749;28;20175;-79
2021/10/30 05:55:12;;;;;;;5.20;3.50;;;;;;;;;;4998105;28;20568;-80
2021/10/30 05:57:38;;;;;;;4.57;3.63;;;;;;;;;;4995895;28;20523;-79
2021/10/30 06:00:04;;;;;;;5.85;3.17;;;;;;;;;;4991962;28;20442;-79
2021/10/30 06:02:30;;;;;;;3.88;2.90;;;;;;;;;;5000689;28;20171;-80
2021/10/30 06:04:56;;;;;;;4.00;3.47;;;;;;;;;;5001423;28;20198;-79
2021/10/30 06:07:22;;;;;;;3.23;3.03;;;;;;;;;;5000963;28;20186;-79
2021/10/30 06:09:48;;;;;;;4.55;3.80;;;;;;;;;;4996581;28;20474;-79
2021/10/30 06:12:14;;;;;;;4.50;2.90;;;;;;;;;;4991284;28;20230;-79
2021/10/30 06:14:40;;;;;;;7.13;3.60;;;;;;;;;;4994734;28;20612;-79
2021/10/30 06:17:07;;;;;;;7.30;3.80;;;;;;;;;;5000774;28;20474;-79
2021/10/30 06:19:33;;;;;;;4.95;3.05;;;;;;;;;;5003140;28;20459;-79
2021/10/30 06:21:59;;;;;;;4.43;3.30;;;;;;;;;;4996387;28;20180;-79
2021/10/30 06:24:26;;;;;;;2.85;2.65;;;;;;;;;;5003910;28;20229;-78
2021/10/30 06:26:52;;;;;;;3.33;3.10;;;;;;;;;;4992111;28;20207;-79
2021/10/30 06:29:18;;;;;;;3.97;3.28;;;;;;;;;;5001672;28;20207;-79
2021/10/30 06:31:44;;;;;;;3.63;3.33;;;;;;;;;;5000487;28;20198;-79
2021/10/30 06:34:10;;;;;;;3.47;3.13;;;;;;;;;;5000712;28;20434;-79
2021/10/30 06:36:36;;;;;;;4.38;3.38;;;;;;;;;;5004596;28;20602;-79
2021/10/30 06:39:03;;;;;;;4.47;3.22;;;;;;;;;;5004595;28;20187;-79
2021/10/30 06:41:29;;;;;;;7.32;3.33;;;;;;;;;;4989062;28;20255;-79
2021/10/30 06:43:55;;;;;;;4.05;2.92;;;;;;;;;;5003314;28;20183;-79
2021/10/30 06:46:21;;;;;;;4.13;3.78;;;;;;;;;;4999174;28;20233;-79
2021/10/30 06:48:50;;;;;;;3.60;3.30;;;;;;;;;;5000562;28;20188;-79
2021/10/30 06:51:16;;;;;;;4.32;3.95;;;;;;;;;;5004868;28;20435;-79
2021/10/30 06:53:42;;;;;;;3.70;2.80;;;;;;;;;;4999266;28;20187;-79
2021/10/30 06:56:08;;;;;;;4.18;2.70;;;;;;;;;;4990505;28;20200;-80
2021/10/30 06:58:34;;;;;;;3.35;3.05;;;;;;;;;;5003609;28;20197;-79
2021/10/30 07:01:00;;;;;;;2.90;2.70;;;;;;;;;;5005271;28;20211;-79
2021/10/30 07:03:26;;;;;;;5.67;2.90;;;;;;;;;;5003021;28;20183;-79
2021/10/30 07:05:52;;;;;;;6.03;3.70;;;;;;;;;;4990406;28;20548;-79
2021/10/30 07:08:18;;;;;;;3.95;3.40;;;;;;;;;;5002126;28;20518;-80
2021/10/30 07:10:44;;;;;;;4.05;3.65;;;;;;;;;;4999506;28;20177;-79
2021/10/30 07:13:11;;;;;;;2.22;2.13;;;;;;;;;;4997948;28;20247;-81
2021/10/30 07:15:37;;;;;;;4.15;3.13;;;;;;;;;;4994116;28;20477;-79
2021/10/30 07:18:03;;;;;;;4.40;3.25;;;;;;;;;;4990941;28;20250;-79
2021/10/30 07:20:30;;;;;;;4.80;4.40;;;;;;;;;;4989205;28;20247;-79
2021/10/30 07:22:56;;;;;;;4.45;2.92;;;;;;;;;;5000382;28;20422;-82
2021/10/30 07:25:22;;;;;;;4.68;2.75;;;;;;;;;;4999910;28;20234;-79
2021/10/30 07:27:49;;;;;;;2.90;2.70;;;;;;;;;;4998983;28;20706;-80
2021/10/30 07:30:16;;;;;;;3.50;2.92;;;;;;;;;;4988647;28;20701;-79
2021/10/30 07:32:42;;;;;;;4.72;3.35;;;;;;;;;;5003953;28;20183;-80
2021/10/30 07:35:09;;;;;;;3.83;3.00;;;;;;;;;;4999774;28;20617;-79
2021/10/30 07:37:35;;;;;;;2.92;2.72;;;;;;;;;;5000464;28;20227;-79
2021/10/30 07:40:01;;;;;;;3.42;3.13;;;;;;;;;;4998372;28;20240;-79
2021/10/30 07:42:27;;;;;;;3.08;2.67;;;;;;;;;;5001160;28;20190;-78
2021/10/30 07:44:54;;;;;;;4.25;2.67;;;;;;;;;;5000938;28;20237;-79
2021/10/30 07:47:20;;;;;;;3.33;2.63;;;;;;;;;;4998580;28;20175;-78
2021/10/30 07:49:46;;;;;;;3.75;2.60;;;;;;;;;;4998983;28;20275;-79
2021/10/30 07:52:12;;;;;;;3.03;2.70;;;;;;;;;;4995820;28;20200;-79
2021/10/30 07:54:39;;;;;;;4.70;2.65;;;;;;;;;;4993896;28;20438;-79
2021/10/30 07:57:09;;;;;;;3.80;3.05;;;;;;;;;;5002107;28;20200;-79
2021/10/30 07:59:35;;;;;;;2.22;2.03;;;;;;;;;;4998275;28;20192;-79
2021/10/30 08:02:01;;;;;;;4.72;2.80;;;;;;;;;;4998305;28;20182;-79
2021/10/30 08:04:28;;;;;;;3.35;2.70;;;;;;;;;;4998226;28;20256;-79
2021/10/30 08:06:54;;;;;;;4.25;2.45;;;;;;;;;;5000232;28;20242;-79
2021/10/30 08:09:20;;;;;;;5.78;2.60;;;;;;;;;;5002612;28;20191;-79
2021/10/30 08:11:46;;;;;;;5.30;3.10;;;;;;;;;;4986043;28;20188;-79
2021/10/30 08:14:12;;;;;;;10.73;3.58;;;;;;;;;;4999564;28;20178;-79
2021/10/30 08:16:38;;;;;;;2.53;2.33;;;;;;;;;;4998483;28;20200;-79
2021/10/30 08:19:05;;;;;;;2.78;2.40;;;;;;;;;;4997552;28;20853;-79
2021/10/30 08:21:31;;;;;;;3.72;3.17;;;;;;;;;;5000673;28;20191;-79
2021/10/30 08:23:57;;;;;;;3.03;2.63;;;;;;;;;;4989078;28;20191;-79
2021/10/30 08:26:23;;;;;;;3.42;2.20;;;;;;;;;;4998314;28;20204;-79
2021/10/30 08:28:49;;;;;;;2.88;2.30;;;;;;;;;;5000032;28;20206;-79
2021/10/30 08:31:15;;;;;;;4.05;2.53;;;;;;;;;;4998845;28;20190;-79
2021/10/30 08:33:42;;;;;;;3.75;2.60;;;;;;;;;;4999327;28;20187;-79
2021/10/30 08:36:08;;;;;;;3.10;2.70;;;;;;;;;;5002015;28;20209;-79
2021/10/30 08:38:34;;;;;;;3.42;2.72;;;;;;;;;;4997782;28;20208;-79
2021/10/30 08:41:01;;;;;;;2.58;2.30;;;;;;;;;;4993733;28;20184;-79
2021/10/30 08:43:27;;;;;;;2.33;2.13;;;;;;;;;;4996681;28;20193;-79
2021/10/30 08:45:54;;;;;;;2.90;2.20;;;;;;;;;;4997230;28;20204;-79
2021/10/30 08:48:25;;;;;;;3.60;2.50;;;;;;;;;;4992718;28;20187;-79
2021/10/30 08:50:51;;;;;;;2.80;2.50;;;;;;;;;;4987588;28;20210;-79
2021/10/30 08:53:18;;;;;;;2.05;1.95;;;;;;;;;;4986953;28;20186;-79
2021/10/30 08:55:44;;;;;;;3.88;2.28;;;;;;;;;;4992722;28;20309;-79
2021/10/30 08:58:11;;;;;;;2.30;2.10;;;;;;;;;;4997883;28;20198;-79
2021/10/30 09:00:39;;;;;;;2.53;2.33;;;;;;;;;;5000486;28;20453;-79
2021/10/30 09:03:06;;;;;;;2.78;2.50;;;;;;;;;;4989445;28;20542;-80
2021/10/30 09:05:32;;;;;;;5.88;2.90;;;;;;;;;;4996890;28;20236;-80
2021/10/30 09:08:03;;;;;;;3.10;2.80;;;;;;;;;;5000817;28;20178;-79
2021/10/30 09:10:30;;;;;;;2.85;2.25;;;;;;;;;;5000272;28;20249;-79
2021/10/30 09:13:00;;;;;;;3.75;2.40;;;;;;;;;;4991659;28;20189;-81
2021/10/30 09:15:40;;;;;;;2.22;2.03;;;;;;;;;;4990874;28;20217;-80
2021/10/30 09:18:27;;;;;;;3.75;2.25;;;;;;;;;;5001991;28;20713;-79
2021/10/30 09:20:53;;;;;;;2.63;2.42;;;;;;;;;;4989263;28;20579;-80
2021/10/30 09:23:20;;;;;;;1.80;1.70;;;;;;;;;;4997701;28;20193;-80
2021/10/30 09:25:59;;;;;;;2.58;1.90;;;;;;;;;;4998990;28;20195;-79
2021/10/30 09:28:25;;;;;;;2.65;1.60;;;;;;;;;;4999864;28;20209;-81
2021/10/30 09:31:02;;;;;;;2.72;1.80;;;;;;;;;;4992380;28;20206;-82
2021/10/30 09:33:30;;;;;;;2.90;1.90;;;;;;;;;;4991794;28;20182;-80
2021/10/30 09:35:57;;;;;;;3.25;1.95;;;;;;;;;;4998914;28;20262;-81
2021/10/30 09:38:29;;;;;;;2.75;1.65;;;;;;;;;;4987356;28;20186;-80
2021/10/30 09:40:55;;;;;;;2.22;2.03;;;;;;;;;;4997812;28;20191;-79
2021/10/30 09:43:21;;;;;;;1.58;1.48;;;;;;;;;;4996138;28;20191;-79
2021/10/30 09:45:50;;;;;;;3.45;1.70;;;;;;;;;;4997313;28;20217;-80
2021/10/30 09:48:21;;;;;;;4.60;1.40;;;;;;;;;;4990577;28;20181;-79
2021/10/30 09:50:48;;;;;;;3.83;1.73;;;;;;;;;;4987687;28;20194;-79
2021/10/30 09:53:24;;;;;;;1.45;1.17;;;;;;;;;;4997455;28;20182;-79
2021/10/30 09:55:52;;;;;;;1.15;1.05;;;;;;;;;;4987548;28;20263;-79
2021/10/30 09:58:27;;;;;;;1.63;1.30;;;;;;;;;;4990117;28;20193;-79
2021/10/30 10:00:54;;;;;;;1.55;1.35;;;;;;;;;;4996641;28;20185;-79
2021/10/30 10:03:21;;;;;;;2.53;1.10;;;;;;;;;;5012415;28;20203;-79
2021/10/30 10:05:47;;;;;;;1.17;1.08;;;;;;;;;;4986829;28;20206;-78
2021/10/30 10:08:13;;;;;;;3.15;2.35;;;;;;;;;;4995869;28;20186;-79
2021/10/30 10:10:39;;;;;;;2.13;1.10;;;;;;;;;;4999863;28;20213;-79
2021/10/30 10:13:05;;;;;;;0.98;0.90;;;;;;;;;;4993979;28;20184;-79
2021/10/30 10:15:31;;;;;;;1.63;1.52;;;;;;;;;;5001295;28;20202;-79
2021/10/30 10:17:58;;;;;;;1.88;1.20;;;;;;;;;;5001713;28;20232;-78
2021/10/30 10:20:24;;;;;;;1.30;1.20;;;;;;;;;;4996164;28;20218;-79
2021/10/30 10:22:50;;;;;;;1.52;1.42;;;;;;;;;;4996484;28;20198;-78
2021/10/30 10:25:30;;;;;;;1.98;1.20;;;;;;;;;;4997769;28;20208;-78
2021/10/30 10:28:16;;;;;;;1.17;1.08;;;;;;;;;;5002717;28;20187;-79
2021/10/30 10:30:52;;;;;;;2.90;1.00;;;;;;;;;;4997903;28;20572;-78
2021/10/30 10:33:18;;;;;;;2.45;0.95;;;;;;;;;;5002135;28;20241;-79
2021/10/30 10:36:03;;;;;;;1.52;1.42;;;;;;;;;;4999648;28;20186;-78
2021/10/30 10:38:48;;;;;;;1.52;1.25;;;;;;;;;;5003482;28;20183;-78
2021/10/30 10:41:32;;;;;;;3.05;1.55;;;;;;;;;;5001720;28;20187;-78
2021/10/30 10:43:59;;;;;;;2.03;1.40;;;;;;;;;;5005371;28;20192;-78
2021/10/30 10:46:25;;;;;;;3.08;1.88;;;;;;;;;;4996011;28;20210;-78
2021/10/30 10:48:51;;;;;;;2.08;1.33;;;;;;;;;;5002244;28;20194;-78
2021/10/30 10:51:23;;;;;;;1.33;1.15;;;;;;;;;;5003537;28;20191;-79
2021/10/30 10:53:58;;;;;;;4.22;1.70;;;;;;;;;;4999682;28;20192;-78
2021/10/30 10:56:24;;;;;;;1.98;1.77;;;;;;;;;;4999084;28;20188;-78
2021/10/30 10:59:06;;;;;;;3.47;1.50;;;;;;;;;;5000252;28;20236;-81
2021/10/30 11:01:34;;;;;;;4.35;2.10;;;;;;;;;;5000514;28;20183;-78
2021/10/30 11:04:10;;;;;;;1.60;1.50;;;;;;;;;;5000466;28;20203;-79
2021/10/30 11:06:42;;;;;;;4.00;1.30;;;;;;;;;;5005075;28;20215;-79
2021/10/30 11:09:11;;;;;;;2.47;1.40;;;;;;;;;;5005914;28;20178;-78
2021/10/30 11:11:37;;;;;;;1.80;1.20;;;;;;;;;;4999045;28;20184;-78
2021/10/30 11:14:05;;;;;;;1.35;1.20;;;;;;;;;;5000165;28;20540;-78
2021/10/30 11:16:31;;;;;;;1.40;1.30;;;;;;;;;;4998802;28;20179;-78
2021/10/30 11:19:00;;;;;;;1.30;1.20;;;;;;;;;;4997763;28;20184;-78
2021/10/30 11:21:32;;;;;;;1.27;1.10;;;;;;;;;;5003376;28;20193;-79
2021/10/30 11:24:00;;;;;;;1.30;1.20;;;;;;;;;;5002197;28;20190;-80
2021/10/30 11:26:30;;;;;;;1.10;1.00;;;;;;;;;;4998828;28;20707;-80
2021/10/30 11:29:04;;;;;;;1.40;0.90;;;;;;;;;;5003369;28;20211;-79
2021/10/30 11:31:30;;;;;;;2.55;1.30;;;;;;;;;;4995551;28;20543;-79
2021/10/30 11:34:00;;;;;;;3.00;1.30;;;;;;;;;;4998022;28;20175;-81
2021/10/30 11:36:27;;;;;;;1.40;1.20;;;;;;;;;;5002667;28;20590;-80
2021/10/30 11:38:55;;;;;;;1.60;1.30;;;;;;;;;;4989373;28;20198;-79
2021/10/30 11:41:25;;;;;;;1.40;1.30;;;;;;;;;;4998575;28;20186;-80
2021/10/30 11:43:51;;;;;;;1.70;1.05;;;;;;;;;;5000486;28;20187;-79
2021/10/30 11:46:19;;;;;;;3.80;1.42;;;;;;;;;;4997864;28;20218;-79
2021/10/30 11:48:45;;;;;;;1.38;1.10;;;;;;;;;;5005107;28;20179;-80
2021/10/30 11:51:18;;;;;;;4.18;1.42;;;;;;;;;;5003305;28;20187;-80
2021/10/30 11:53:44;;;;;;;1.45;1.35;;;;;;;;;;4987567;28;20210;-80
2021/10/30 11:56:13;;;;;;;2.55;1.63;;;;;;;;;;4999734;28;20206;-80
2021/10/30 11:58:40;;;;;;;1.40;1.30;;;;;;;;;;4998200;28;20221;-81
2021/10/30 12:01:19;;;;;;;1.65;1.23;;;;;;;;;;4996589;28;20192;-80
2021/10/30 12:03:45;;;;;;;1.27;1.13;;;;;;;;;;4998294;28;20183;-81
2021/10/30 12:06:11;;;;;;;3.40;1.40;;;;;;;;;;5005056;28;20686;-79
2021/10/30 12:08:37;;;;;;;2.00;1.30;;;;;;;;;;4999666;28;20492;-81
2021/10/30 12:11:07;;;;;;;1.50;1.40;;;;;;;;;;4999083;28;20675;-81
2021/10/30 12:13:36;;;;;;;4.35;1.63;;;;;;;;;;4996925;28;20270;-81
2021/10/30 12:16:02;;;;;;;1.73;1.60;;;;;;;;;;4996531;28;20667;-79
2021/10/30 12:18:29;;;;;;;3.58;1.92;;;;;;;;;;5002466;28;20244;-80
2021/10/30 12:20:57;;;;;;;2.10;1.90;;;;;;;;;;4988532;28;20197;-82
2021/10/30 12:23:23;;;;;;;1.50;1.40;;;;;;;;;;4997773;28;20273;-80
2021/10/30 12:25:49;;;;;;;1.50;1.40;;;;;;;;;;4998615;28;20695;-81
2021/10/30 12:28:15;;;;;;;1.95;1.20;;;;;;;;;;4997472;28;20446;-80
2021/10/30 12:30:41;;;;;;;2.75;1.95;;;;;;;;;;5001498;28;20180;-80
2021/10/30 12:33:11;;;;;;;1.50;1.40;;;;;;;;;;4986895;28;20183;-81
2021/10/30 12:35:39;;;;;;;1.80;1.70;;;;;;;;;;5002505;28;20183;-81
2021/10/30 12:38:12;;;;;;;1.63;1.50;;;;;;;;;;4991388;28;20172;-81
2021/10/30 12:40:39;;;;;;;1.85;1.48;;;;;;;;;;4998605;28;20199;-81
2021/10/30 12:43:06;;;;;;;1.55;1.45;;;;;;;;;;4996594;28;20199;-81
2021/10/30 12:45:48;;;;;;;2.58;2.38;;;;;;;;;;5000123;28;20562;-80
2021/10/30 12:48:15;;;;;;;1.90;1.35;;;;;;;;;;4990665;28;20179;-81
2021/10/30 12:50:41;;;;;;;1.70;1.60;;;;;;;;;;4997121;28;20274;-81
2021/10/30 12:53:22;;;;;;;1.95;1.58;;;;;;;;;;4993867;28;20171;-81
2021/10/30 12:56:06;;;;;;;1.70;1.60;;;;;;;;;;5013635;28;20210;-82
2021/10/30 12:58:35;;;;;;;2.75;1.70;;;;;;;;;;4996394;28;20191;-83
2021/10/30 13:01:02;;;;;;;1.65;1.55;;;;;;;;;;4998388;28;20214;-83
2021/10/30 13:03:32;;;;;;;3.03;1.92;;;;;;;;;;5001415;28;20180;-80
2021/10/30 13:05:59;;;;;;;2.50;2.25;;;;;;;;;;5001969;28;20225;-81
2021/10/30 13:08:25;;;;;;;2.20;2.00;;;;;;;;;;4987019;28;20180;-80
2021/10/30 13:10:51;;;;;;;6.85;2.38;;;;;;;;;;4998889;28;20186;-81
2021/10/30 13:13:17;;;;;;;5.40;2.60;;;;;;;;;;4997744;28;20296;-81
2021/10/30 13:15:43;;;;;;;2.87;1.97;;;;;;;;;;5002728;28;20442;-81
2021/10/30 13:18:09;;;;;;;2.90;1.90;;;;;;;;;;4993720;28;20502;-80
2021/10/30 13:20:40;;;;;;;3.83;2.00;;;;;;;;;;4996788;28;20462;-80
2021/10/30 13:23:06;;;;;;;3.90;2.30;;;;;;;;;;4984242;28;20425;-80
2021/10/30 13:25:32;;;;;;;2.63;2.40;;;;;;;;;;4995946;28;20213;-80
2021/10/30 13:27:57;;;;;;;4.83;2.17;;;;;;;;;;5002828;28;20457;-81
2021/10/30 13:30:23;;;;;;;3.23;1.87;;;;;;;;;;4989993;28;20453;-80
2021/10/30 13:32:50;;;;;;;2.42;2.22;;;;;;;;;;5002979;28;20507;-81
2021/10/30 13:35:16;;;;;;;4.28;1.90;;;;;;;;;;5003116;28;20189;-82
2021/10/30 13:37:42;;;;;;;2.30;2.10;;;;;;;;;;4996937;28;20180;-80
2021/10/30 13:40:08;;;;;;;2.60;2.00;;;;;;;;;;4994808;28;20451;-82
2021/10/30 13:42:39;;;;;;;2.22;2.03;;;;;;;;;;4991432;28;20450;-80
2021/10/30 13:45:06;;;;;;;2.45;1.85;;;;;;;;;;5000740;28;20213;-84
2021/10/30 13:47:32;;;;;;;5.22;1.70;;;;;;;;;;4996124;28;20201;-81
2021/10/30 13:49:58;;;;;;;1.58;1.48;;;;;;;;;;4997688;28;20260;-79
2021/10/30 13:52:24;;;;;;;2.95;2.00;;;;;;;;;;5003241;28;20182;-80
2021/10/30 13:54:50;;;;;;;3.45;1.80;;;;;;;;;;5003394;28;20185;-80
2021/10/30 13:57:16;;;;;;;5.03;1.90;;;;;;;;;;4998436;28;20221;-80
2021/10/30 13:59:42;;;;;;;5.72;2.60;;;;;;;;;;4992235;28;20183;-85
2021/10/30 14:02:11;;;;;;;2.77;1.83;;;;;;;;;;4999071;28;20178;-86
2021/10/30 14:04:37;;;;;;;2.40;1.63;;;;;;;;;;5000734;28;20435;-85
2021/10/30 14:07:03;;;;;;;3.10;1.95;;;;;;;;;;4994288;28;20205;-86
2021/10/30 14:09:29;;;;;;;3.17;2.10;;;;;;;;;;5001237;28;20187;-84
2021/10/30 14:11:55;;;;;;;4.53;2.28;;;;;;;;;;5003374;28;20197;-84
2021/10/30 14:14:21;;;;;;;5.00;2.07;;;;;;;;;;4995562;28;20176;-79
2021/10/30 14:16:47;;;;;;;3.83;2.63;;;;;;;;;;5004112;28;20483;-80
2021/10/30 14:19:13;;;;;;;2.60;1.95;;;;;;;;;;4997600;28;20258;-81
2021/10/30 14:21:39;;;;;;;1.90;1.75;;;;;;;;;;4996026;28;20202;-79
2021/10/30 14:24:07;;;;;;;1.75;1.65;;;;;;;;;;4995933;28;20434;-79
2021/10/30 14:26:33;;;;;;;2.05;1.40;;;;;;;;;;4999536;28;20214;-79
2021/10/30 14:29:00;;;;;;;1.60;1.50;;;;;;;;;;5000474;28;20193;-79
2021/10/30 14:31:26;;;;;;;4.32;1.73;;;;;;;;;;5000832;28;20182;-80
2021/10/30 14:33:53;;;;;;;1.95;1.80;;;;;;;;;;5001326;28;20178;-79
2021/10/30 14:36:19;;;;;;;1.70;1.60;;;;;;;;;;5005384;28;20205;-79
2021/10/30 14:38:45;;;;;;;4.50;2.07;;;;;;;;;;4999827;28;20190;-79
2021/10/30 14:41:11;;;;;;;4.60;1.63;;;;;;;;;;5001138;28;20497;-79
2021/10/30 14:43:37;;;;;;;1.55;1.40;;;;;;;;;;4998047;28;20452;-79
2021/10/30 14:46:03;;;;;;;1.80;1.70;;;;;;;;;;5000053;28;20219;-79